createdAt,value
2023-01-03T00:01:51.416Z,1.50
2023-01-03T00:04:21.462Z,1.90
2023-01-03T00:06:52.252Z,2.20
2023-01-03T00:09:22.470Z,2.20
2023-01-03T00:12:09.577Z,1.77
2023-01-03T00:14:40.793Z,1.73
2023-01-03T00:17:09.105Z,1.77
2023-01-03T00:19:40.050Z,1.87
2023-01-03T00:22:07.750Z,2.40
2023-01-03T00:24:35.157Z,1.83
2023-01-03T00:27:02.614Z,1.93
2023-01-03T00:29:30.162Z,1.90
2023-01-03T00:31:57.889Z,9.87
2023-01-03T00:34:26.296Z,1.90
2023-01-03T00:36:53.815Z,2.20
2023-01-03T00:39:21.545Z,1.50
2023-01-03T00:41:48.916Z,1.80
2023-01-03T00:44:16.590Z,2.10
2023-01-03T00:46:44.295Z,1.77
2023-01-03T00:49:12.082Z,2.40
2023-01-03T00:51:40.936Z,2.10
2023-01-03T00:54:09.111Z,1.57
2023-01-03T00:56:38.717Z,3.07
2023-01-03T00:59:06.857Z,2.30
2023-01-03T01:01:44.228Z,1.93
2023-01-03T01:04:29.047Z,2.03
2023-01-03T01:06:59.248Z,2.07
2023-01-03T01:09:31.989Z,1.73
2023-01-03T01:11:59.743Z,1.47
2023-01-03T01:14:29.586Z,1.73
2023-01-03T01:17:02.748Z,1.90
2023-01-03T01:19:40.440Z,1.80
2023-01-03T01:22:08.161Z,1.80
2023-01-03T01:24:35.755Z,2.27
2023-01-03T01:27:03.304Z,1.47
2023-01-03T01:29:30.648Z,1.70
2023-01-03T01:31:57.967Z,1.00
2023-01-03T01:34:25.370Z,1.80
2023-01-03T01:36:52.729Z,1.83
2023-01-03T01:39:22.868Z,1.70
2023-01-03T01:42:18.988Z,1.23
2023-01-03T01:44:55.464Z,1.97
2023-01-03T01:47:48.622Z,2.00
2023-01-03T01:50:21.766Z,1.90
2023-01-03T01:53:00.405Z,4.50
2023-01-03T01:55:32.129Z,1.63
2023-01-03T01:58:01.806Z,2.07
2023-01-03T02:00:29.905Z,2.20
2023-01-03T02:02:57.375Z,2.40
2023-01-03T02:05:25.344Z,1.60
2023-01-03T02:07:53.748Z,1.57
2023-01-03T02:10:41.705Z,1.50
2023-01-03T02:13:39.865Z,1.27
2023-01-03T02:16:18.769Z,1.90
2023-01-03T02:19:04.347Z,2.03
2023-01-03T02:22:03.667Z,2.07
2023-01-03T02:24:49.641Z,1.57
2023-01-03T02:27:22.457Z,1.67
2023-01-03T02:30:08.501Z,1.80
2023-01-03T02:32:54.319Z,1.67
2023-01-03T02:36:06.029Z,1.83
2023-01-03T02:38:58.409Z,1.83
2023-01-03T02:41:45.552Z,1.90
2023-01-03T02:44:36.281Z,2.83
2023-01-03T02:47:15.307Z,2.50
2023-01-03T02:49:50.611Z,2.60
2023-01-03T02:52:24.090Z,3.80
2023-01-03T02:55:03.911Z,11.47
2023-01-03T02:57:49.184Z,5.20
2023-01-03T03:00:21.936Z,6.70
2023-01-03T03:02:56.053Z,4.80
2023-01-03T03:05:32.714Z,3.57
2023-01-03T03:07:59.698Z,4.07
2023-01-03T03:10:46.731Z,11.23
2023-01-03T03:13:31.643Z,4.40
2023-01-03T03:16:18.491Z,3.40
2023-01-03T03:19:00.553Z,2.67
2023-01-03T03:21:52.947Z,5.07
2023-01-03T03:24:45.181Z,3.43
2023-01-03T03:27:32.611Z,3.03
2023-01-03T03:30:01.768Z,3.37
2023-01-03T03:32:32.811Z,3.47
2023-01-03T03:35:03.703Z,3.77
2023-01-03T03:37:33.809Z,5.37
2023-01-03T03:40:19.641Z,4.03
2023-01-03T03:43:27.522Z,4.90
2023-01-03T03:45:59.734Z,3.93
2023-01-03T03:49:02.220Z,9.43
2023-01-03T03:51:32.995Z,5.20
2023-01-03T03:54:03.560Z,3.50
2023-01-03T03:56:34.773Z,4.60
2023-01-03T03:59:07.496Z,4.83
2023-01-03T04:01:37.820Z,4.33
2023-01-03T04:04:13.731Z,5.20
2023-01-03T04:06:48.552Z,4.43
2023-01-03T04:09:18.055Z,4.03
2023-01-03T04:11:45.571Z,4.10
2023-01-03T04:14:12.894Z,3.77
2023-01-03T04:16:41.163Z,3.10
2023-01-03T04:19:08.816Z,8.23
2023-01-03T04:21:37.192Z,7.10
2023-01-03T04:24:05.420Z,4.80
2023-01-03T04:26:32.587Z,5.50
2023-01-03T04:28:59.911Z,4.50
2023-01-03T04:31:27.407Z,4.77
2023-01-03T04:33:54.365Z,9.90
2023-01-03T04:36:21.570Z,6.37
2023-01-03T04:38:48.916Z,15.83
2023-01-03T04:41:16.784Z,5.23
2023-01-03T04:44:01.721Z,4.40
2023-01-03T04:46:34.427Z,7.17
2023-01-03T04:49:02.490Z,7.00
2023-01-03T04:51:30.155Z,8.53
2023-01-03T04:53:57.709Z,8.63
2023-01-03T04:56:30.581Z,5.60
2023-01-03T04:58:57.867Z,3.73
2023-01-03T05:01:25.621Z,8.20
2023-01-03T05:03:56.583Z,4.10
2023-01-03T05:06:23.964Z,8.10
2023-01-03T05:08:51.307Z,4.27
2023-01-03T05:11:18.597Z,5.67
2023-01-03T05:13:45.971Z,5.17
2023-01-03T05:16:15.134Z,3.40
2023-01-03T05:18:44.444Z,5.27
2023-01-03T05:21:40.741Z,5.57
2023-01-03T05:24:30.367Z,3.80
2023-01-03T05:27:00.481Z,3.93
2023-01-03T05:29:29.339Z,3.17
2023-01-03T05:31:56.369Z,3.90
2023-01-03T05:34:23.488Z,2.90
2023-01-03T05:36:50.882Z,3.43
2023-01-03T05:39:18.255Z,4.80
2023-01-03T05:42:00.620Z,3.70
2023-01-03T05:44:34.707Z,4.80
2023-01-03T05:47:04.498Z,3.07
2023-01-03T05:49:31.623Z,3.10
2023-01-03T05:51:58.572Z,4.10
2023-01-03T05:54:26.411Z,3.93
2023-01-03T05:56:53.392Z,5.93
2023-01-03T05:59:22.653Z,3.57
2023-01-03T06:01:49.973Z,5.97
2023-01-03T06:04:17.150Z,5.23
2023-01-03T06:06:44.777Z,5.07
2023-01-03T06:09:12.158Z,7.47
2023-01-03T06:11:41.049Z,4.37
2023-01-03T06:14:08.153Z,5.00
2023-01-03T06:16:53.832Z,4.70
2023-01-03T06:19:20.891Z,9.87
2023-01-03T06:21:50.077Z,12.87
2023-01-03T06:24:17.015Z,19.73
2023-01-03T06:26:43.932Z,10.57
2023-01-03T06:29:10.892Z,5.20
2023-01-03T06:31:38.103Z,15.20
2023-01-03T06:34:05.124Z,7.27
2023-01-03T06:36:34.402Z,7.17
2023-01-03T06:39:01.684Z,5.97
2023-01-03T06:41:28.673Z,7.30
2023-01-03T06:43:55.945Z,6.63
2023-01-03T06:46:41.317Z,6.00
2023-01-03T06:49:36.131Z,5.87
2023-01-03T06:52:23.280Z,9.33
2023-01-03T06:54:50.439Z,4.90
2023-01-03T06:57:26.757Z,6.00
2023-01-03T06:59:55.411Z,6.00
2023-01-03T07:02:22.996Z,8.70
2023-01-03T07:04:50.181Z,6.37
2023-01-03T07:07:17.120Z,9.40
2023-01-03T07:09:44.048Z,5.30
2023-01-03T07:12:30.165Z,5.40
2023-01-03T07:14:57.114Z,5.03
2023-01-03T07:17:24.073Z,5.83
2023-01-03T07:19:51.426Z,9.40
2023-01-03T07:22:18.335Z,4.70
2023-01-03T07:24:45.453Z,5.27
2023-01-03T07:27:13.001Z,4.20
2023-01-03T07:29:39.907Z,5.23
2023-01-03T07:32:06.854Z,6.70
2023-01-03T07:34:33.879Z,5.77
2023-01-03T07:37:00.821Z,10.00
2023-01-03T07:39:27.730Z,5.03
2023-01-03T07:42:13.711Z,4.13
2023-01-03T07:44:42.120Z,4.03
2023-01-03T07:47:09.066Z,4.77
2023-01-03T07:49:36.069Z,4.73
2023-01-03T07:52:03.022Z,4.57
2023-01-03T07:54:30.399Z,4.80
2023-01-03T07:56:57.362Z,5.50
2023-01-03T07:59:24.411Z,5.37
2023-01-03T08:01:51.530Z,3.60
2023-01-03T08:04:18.662Z,4.43
2023-01-03T08:06:45.652Z,4.17
2023-01-03T08:09:31.171Z,7.10
2023-01-03T08:12:16.387Z,5.13
2023-01-03T08:14:43.409Z,3.80
2023-01-03T08:17:10.339Z,4.10
2023-01-03T08:19:43.517Z,4.17
2023-01-03T08:22:12.378Z,4.57
2023-01-03T08:24:39.389Z,4.40
2023-01-03T08:27:06.349Z,5.17
2023-01-03T08:29:33.320Z,4.73
2023-01-03T08:32:02.926Z,4.87
2023-01-03T08:34:33.508Z,25.03
2023-01-03T08:37:07.599Z,52.43
2023-01-03T08:39:44.513Z,23.53
2023-01-03T08:42:15.682Z,12.43
2023-01-03T08:44:45.018Z,11.57
2023-01-03T08:47:13.498Z,8.10
2023-01-03T08:49:40.868Z,6.90
2023-01-03T08:52:08.215Z,6.17
2023-01-03T08:54:35.303Z,7.93
2023-01-03T08:57:02.267Z,7.50
2023-01-03T08:59:29.248Z,9.57
2023-01-03T09:02:01.970Z,7.43
2023-01-03T09:04:29.165Z,8.63
2023-01-03T09:06:56.606Z,5.60
2023-01-03T09:09:23.559Z,5.60
2023-01-03T09:11:50.540Z,9.73
2023-01-03T09:14:17.494Z,14.60
2023-01-03T09:16:49.084Z,5.90
2023-01-03T09:19:17.213Z,5.40
2023-01-03T09:21:44.186Z,6.73
2023-01-03T09:24:11.131Z,8.27
2023-01-03T09:26:38.156Z,7.70
2023-01-03T09:29:05.167Z,5.57
2023-01-03T09:31:35.016Z,5.67
2023-01-03T09:34:04.660Z,5.50
2023-01-03T09:36:32.558Z,9.57
2023-01-03T09:38:59.535Z,4.37
2023-01-03T09:41:27.830Z,4.90
2023-01-03T09:44:03.447Z,4.87
2023-01-03T09:46:32.681Z,3.93
2023-01-03T09:49:01.034Z,4.47
2023-01-03T09:51:53.543Z,5.60
2023-01-03T09:54:48.988Z,8.90
2023-01-03T09:57:47.625Z,10.47
2023-01-03T10:00:47.243Z,6.50
2023-01-03T10:03:51.093Z,7.97
2023-01-03T10:06:35.886Z,28.63
2023-01-03T10:10:02.977Z,10.00
2023-01-03T10:13:04.360Z,9.83
2023-01-03T10:15:31.861Z,7.70
2023-01-03T10:18:36.257Z,7.40
2023-01-03T10:21:06.747Z,7.60
2023-01-03T10:23:35.512Z,7.67
2023-01-03T10:26:12.259Z,7.63
2023-01-03T10:28:44.382Z,7.60
2023-01-03T10:31:43.041Z,6.47
2023-01-03T10:34:11.337Z,5.20
2023-01-03T10:36:38.273Z,4.90
2023-01-03T10:39:08.691Z,4.83
2023-01-03T10:41:48.305Z,7.47
2023-01-03T10:44:30.075Z,3.67
2023-01-03T10:46:59.814Z,5.47
2023-01-03T10:49:31.733Z,7.07
2023-01-03T10:52:17.310Z,5.13
2023-01-03T10:54:44.588Z,8.33
2023-01-03T10:57:43.394Z,5.00
2023-01-03T11:00:23.128Z,5.13
2023-01-03T11:02:51.419Z,5.40
2023-01-03T11:05:26.853Z,5.93
2023-01-03T11:07:57.686Z,5.23
2023-01-03T11:10:30.835Z,5.50
2023-01-03T11:12:58.853Z,4.63
2023-01-03T11:15:38.025Z,4.70
2023-01-03T11:18:18.128Z,6.37
2023-01-03T11:21:18.168Z,5.80
2023-01-03T11:24:06.961Z,4.13
2023-01-03T11:27:16.040Z,3.50
2023-01-03T11:29:52.875Z,4.57
2023-01-03T11:32:19.879Z,2.80
2023-01-03T11:35:22.796Z,2.10
2023-01-03T11:38:09.760Z,3.33
2023-01-03T11:40:53.136Z,2.13
2023-01-03T11:43:45.567Z,3.83
2023-01-03T11:46:53.449Z,2.70
2023-01-03T11:49:39.085Z,2.00
2023-01-03T11:52:24.726Z,2.60
2023-01-03T11:55:35.991Z,2.40
2023-01-03T11:58:56.985Z,1.80
2023-01-03T12:02:03.383Z,2.23
2023-01-03T12:05:06.866Z,1.17
2023-01-03T12:08:00.480Z,1.33
2023-01-03T12:10:43.538Z,1.70
2023-01-03T12:13:29.127Z,1.60
2023-01-03T12:16:23.565Z,2.30
2023-01-03T12:19:17.341Z,1.73
2023-01-03T12:21:52.495Z,1.80
2023-01-03T12:24:28.614Z,2.70
2023-01-03T12:27:02.476Z,1.87
2023-01-03T12:30:20.712Z,1.40
2023-01-03T12:33:00.319Z,1.83
2023-01-03T12:35:53.444Z,2.57
2023-01-03T12:38:29.726Z,2.07
2023-01-03T12:41:40.253Z,1.10
2023-01-03T12:44:43.797Z,1.60
2023-01-03T12:48:09.381Z,1.57
2023-01-03T12:50:49.909Z,2.30
2023-01-03T12:53:26.860Z,13.90
2023-01-03T12:56:08.731Z,2.20
2023-01-03T12:59:00.401Z,2.13
2023-01-03T13:01:43.025Z,1.10
2023-01-03T13:04:23.944Z,1.30
2023-01-03T13:07:16.013Z,6.00
2023-01-03T13:09:58.980Z,1.10
2023-01-03T13:12:32.089Z,0.90
2023-01-03T13:15:36.535Z,1.53
2023-01-03T13:18:21.440Z,1.17
2023-01-03T13:20:50.709Z,2.83
2023-01-03T13:23:41.682Z,2.10
2023-01-03T13:26:20.439Z,5.60
2023-01-03T13:28:47.705Z,3.80
2023-01-03T13:31:14.787Z,0.90
2023-01-03T13:33:56.342Z,0.90
2023-01-03T13:36:24.631Z,1.20
2023-01-03T13:38:52.049Z,3.47
2023-01-03T13:41:39.029Z,0.80
2023-01-03T13:44:19.824Z,2.60
2023-01-03T13:46:48.332Z,1.60
2023-01-03T13:49:27.591Z,1.87
2023-01-03T13:51:57.783Z,1.60
2023-01-03T13:54:35.373Z,1.63
2023-01-03T13:57:37.372Z,1.33
2023-01-03T14:00:19.899Z,1.00
2023-01-03T14:03:27.313Z,1.00
2023-01-03T14:06:11.925Z,4.50
2023-01-03T14:09:16.059Z,0.93
2023-01-03T14:12:22.743Z,1.33
2023-01-03T14:14:55.954Z,2.20
2023-01-03T14:17:36.303Z,1.27
2023-01-03T14:20:09.564Z,0.90
2023-01-03T14:22:48.251Z,1.03
2023-01-03T14:25:40.924Z,1.53
2023-01-03T14:28:27.047Z,5.67
2023-01-03T14:31:06.454Z,4.90
2023-01-03T14:33:58.701Z,10.13
2023-01-03T14:36:25.875Z,7.20
2023-01-03T14:38:59.226Z,1.80
2023-01-03T14:41:38.992Z,2.70
2023-01-03T14:44:15.877Z,1.43
2023-01-03T14:46:56.496Z,1.70
2023-01-03T14:49:48.642Z,6.73
2023-01-03T14:52:37.490Z,2.77
2023-01-03T14:55:20.047Z,4.07
2023-01-03T14:57:49.212Z,3.40
2023-01-03T15:00:30.164Z,1.80
2023-01-03T15:03:00.186Z,3.23
2023-01-03T15:05:29.311Z,1.80
2023-01-03T15:08:20.403Z,5.47
2023-01-03T15:10:59.907Z,4.33
2023-01-03T15:13:57.013Z,3.00
2023-01-03T15:16:33.158Z,3.17
2023-01-03T15:19:14.118Z,4.93
2023-01-03T15:21:42.476Z,4.33
2023-01-03T15:24:23.910Z,8.50
2023-01-03T15:26:53.259Z,3.70
2023-01-03T15:29:25.906Z,6.43
2023-01-03T15:31:58.289Z,2.43
2023-01-03T15:34:34.412Z,2.23
2023-01-03T15:37:05.855Z,2.70
2023-01-03T15:39:51.424Z,3.03
2023-01-03T15:42:45.296Z,2.97
2023-01-03T15:45:30.549Z,2.13
2023-01-03T15:48:00.732Z,4.10
2023-01-03T15:50:49.100Z,5.80
2023-01-03T15:53:36.461Z,3.27
2023-01-03T15:56:12.741Z,3.90
2023-01-03T15:58:40.226Z,5.17
2023-01-03T16:01:08.263Z,5.23
2023-01-03T16:03:35.899Z,3.83
2023-01-03T16:06:03.182Z,4.13
2023-01-03T16:08:36.070Z,5.50
2023-01-03T16:11:07.040Z,20.47
2023-01-03T16:13:45.485Z,5.37
2023-01-03T16:16:14.652Z,3.40
2023-01-03T16:18:45.071Z,3.30
2023-01-03T16:21:13.645Z,22.93
2023-01-03T16:23:40.857Z,368.60
2023-01-03T16:26:08.465Z,358.00
2023-01-03T16:28:35.588Z,63.60
2023-01-03T16:31:11.361Z,18.97
2023-01-03T16:33:38.453Z,13.30
2023-01-03T16:36:06.264Z,8.07
2023-01-03T16:38:33.904Z,5.93
2023-01-03T16:41:00.887Z,20.00
2023-01-03T16:43:28.287Z,89.50
2023-01-03T16:45:59.252Z,31.57
2023-01-03T16:48:36.804Z,48.07
2023-01-03T16:51:04.224Z,21.97
2023-01-03T16:53:40.134Z,18.90
2023-01-03T16:56:11.205Z,42.27
2023-01-03T16:58:38.104Z,33.10
2023-01-03T17:01:05.343Z,27.77
2023-01-03T17:03:35.392Z,23.20
2023-01-03T17:06:35.057Z,41.93
2023-01-03T17:09:15.736Z,33.53
2023-01-03T17:11:43.996Z,30.77
2023-01-03T17:14:19.114Z,24.63
2023-01-03T17:16:46.985Z,12.60
2023-01-03T17:20:02.796Z,23.00
2023-01-03T17:22:18.087Z,8.23
2023-01-03T17:24:46.334Z,11.03
2023-01-03T17:27:31.064Z,10.07
2023-01-03T17:30:03.432Z,8.20
2023-01-03T17:32:30.688Z,8.77
2023-01-03T17:34:58.085Z,15.53
2023-01-03T17:37:26.014Z,8.07
2023-01-03T17:39:59.923Z,23.40
2023-01-03T17:42:28.893Z,15.53
2023-01-03T17:45:14.339Z,24.70
2023-01-03T17:48:02.860Z,18.27
2023-01-03T17:50:32.072Z,11.20
2023-01-03T17:53:01.738Z,21.67
2023-01-03T17:55:30.599Z,11.97
2023-01-03T17:58:00.854Z,9.40
2023-01-03T18:00:29.858Z,13.70
2023-01-03T18:02:57.705Z,10.57
2023-01-03T18:05:28.713Z,23.10
2023-01-03T18:07:59.484Z,19.43
2023-01-03T18:10:45.720Z,9.23
2023-01-03T18:13:40.176Z,20.60
2023-01-03T18:16:08.902Z,11.90
2023-01-03T18:18:36.076Z,19.17
2023-01-03T18:21:03.186Z,32.83
2023-01-03T18:23:33.553Z,15.23
2023-01-03T18:26:04.941Z,24.83
2023-01-03T18:28:32.327Z,21.80
2023-01-03T18:30:59.546Z,38.43
2023-01-03T18:33:26.677Z,22.87
2023-01-03T18:35:54.005Z,262.80
2023-01-03T18:38:32.279Z,1104.57
2023-01-03T18:41:05.040Z,533.47
2023-01-03T18:43:33.862Z,155.57
2023-01-03T18:46:01.212Z,90.13
2023-01-03T18:48:28.288Z,55.23
2023-01-03T18:50:59.458Z,32.50
2023-01-03T18:53:31.182Z,20.13
2023-01-03T18:55:59.075Z,20.63
2023-01-03T18:58:37.014Z,24.53
2023-01-03T19:01:05.735Z,21.47
2023-01-03T19:03:35.204Z,101.63
2023-01-03T19:06:06.544Z,128.80
2023-01-03T19:08:34.162Z,34.40
2023-01-03T19:11:17.271Z,18.50
2023-01-03T19:13:50.814Z,20.53
2023-01-03T19:16:26.811Z,16.80
2023-01-03T19:18:54.396Z,18.40
2023-01-03T19:21:22.555Z,16.80
2023-01-03T19:24:06.259Z,18.20
2023-01-03T19:26:38.594Z,17.47
2023-01-03T19:29:10.294Z,23.50
2023-01-03T19:31:42.941Z,29.03
2023-01-03T19:34:22.149Z,23.50
2023-01-03T19:36:49.644Z,27.40
2023-01-03T19:39:24.083Z,28.00
2023-01-03T19:42:16.314Z,27.37
2023-01-03T19:44:43.538Z,40.87
2023-01-03T19:47:17.497Z,27.97
2023-01-03T19:49:47.821Z,69.00
2023-01-03T19:52:16.179Z,51.33
2023-01-03T19:54:43.684Z,41.03
2023-01-03T19:57:21.969Z,30.00
2023-01-03T19:59:53.750Z,27.10
2023-01-03T20:02:52.699Z,20.93
2023-01-03T20:05:27.049Z,26.67
2023-01-03T20:07:54.014Z,25.00
2023-01-03T20:10:24.689Z,25.90
2023-01-03T20:12:56.035Z,37.27
2023-01-03T20:15:35.420Z,20.57
2023-01-03T20:18:03.797Z,29.23
2023-01-03T20:20:33.042Z,23.57
2023-01-03T20:23:09.597Z,32.07
2023-01-03T20:25:37.228Z,19.27
2023-01-03T20:28:05.228Z,14.10
2023-01-03T20:30:33.749Z,13.87
2023-01-03T20:33:00.816Z,18.80
2023-01-03T20:38:22.982Z,23.40
2023-01-03T20:40:50.074Z,22.90
2023-01-03T20:43:18.260Z,27.50
2023-01-03T20:45:47.540Z,28.97
2023-01-03T20:48:21.241Z,20.53
2023-01-03T20:50:52.226Z,24.60
2023-01-03T20:53:23.362Z,32.37
2023-01-03T20:55:51.553Z,32.67
2023-01-03T20:58:22.521Z,20.30
2023-01-03T21:00:49.570Z,21.33
2023-01-03T21:03:17.171Z,15.60
2023-01-03T21:05:44.366Z,21.20
2023-01-03T21:08:36.121Z,19.80
2023-01-03T21:11:03.104Z,19.43
2023-01-03T21:13:30.237Z,15.27
2023-01-03T21:15:57.287Z,23.23
2023-01-03T21:18:24.700Z,16.43
2023-01-03T21:20:51.912Z,15.57
2023-01-03T21:23:22.020Z,14.70
2023-01-03T21:25:49.522Z,16.67
2023-01-03T21:28:16.904Z,28.73
2023-01-03T21:30:43.948Z,33.73
2023-01-03T21:33:17.920Z,24.17
2023-01-03T21:35:46.214Z,25.63
2023-01-03T21:38:13.313Z,18.10
2023-01-03T21:40:40.330Z,26.10
2023-01-03T21:43:07.437Z,17.87
2023-01-03T21:45:45.400Z,26.40
2023-01-03T21:48:16.231Z,15.63
2023-01-03T21:50:49.794Z,23.07
2023-01-03T21:53:22.984Z,12.97
2023-01-03T21:55:50.822Z,11.70
2023-01-03T21:58:21.077Z,13.33
2023-01-03T22:00:48.091Z,9.97
2023-01-03T22:03:36.644Z,8.63
2023-01-03T22:06:13.641Z,11.63
2023-01-03T22:08:41.285Z,9.97
2023-01-03T22:11:08.398Z,18.90
2023-01-03T22:13:36.148Z,12.07
2023-01-03T22:16:05.761Z,7.03
2023-01-03T22:18:33.585Z,19.40
2023-01-03T22:21:06.939Z,23.60
2023-01-03T22:23:34.859Z,17.03
2023-01-03T22:26:10.607Z,17.20
2023-01-03T22:28:43.758Z,16.80
2023-01-03T22:31:22.959Z,26.87
2023-01-03T22:33:51.235Z,27.23
2023-01-03T22:36:18.139Z,21.47
2023-01-03T22:38:45.222Z,21.47
2023-01-03T22:41:16.642Z,27.60
2023-01-03T22:43:44.480Z,28.63
2023-01-03T22:46:14.756Z,21.87
2023-01-03T22:48:42.691Z,23.23
2023-01-03T22:51:13.817Z,25.07
2023-01-03T22:53:43.588Z,22.53
2023-01-03T22:56:18.083Z,20.13
2023-01-03T22:58:46.534Z,19.70
2023-01-03T23:01:20.286Z,28.80
2023-01-03T23:03:47.957Z,20.13
2023-01-03T23:06:19.610Z,22.77
2023-01-03T23:08:54.269Z,27.77
2023-01-03T23:11:43.820Z,53.10
2023-01-03T23:14:15.219Z,40.83
2023-01-03T23:16:42.456Z,35.20
2023-01-03T23:19:15.368Z,26.07
2023-01-03T23:21:45.406Z,18.13
2023-01-03T23:24:22.351Z,33.73
2023-01-03T23:26:50.811Z,29.73
2023-01-03T23:29:17.974Z,35.17
2023-01-03T23:31:45.386Z,22.40
2023-01-03T23:34:12.914Z,21.67
2023-01-03T23:36:42.797Z,32.03
2023-01-03T23:39:14.043Z,31.27
2023-01-03T23:41:41.176Z,29.87
2023-01-03T23:44:08.507Z,33.50
2023-01-03T23:46:35.625Z,26.60
2023-01-03T23:49:02.788Z,16.07
2023-01-03T23:51:29.894Z,18.50
2023-01-03T23:53:56.776Z,16.13
2023-01-03T23:56:25.124Z,17.30
2023-01-03T23:58:53.255Z,17.07
